Aaronsburg, Pennsylvania
Current Conditions -  °F | °C
As of 11:53 AM on Tuesday 21 Oct 2014 (Local Time) from KUNV Reporting Station
Overcast Overcast  
Wind Chill: 55°   Ceiling: 2600
Heat Index: 55°   Visibility: 10mi
Dew Point: 48°   Wind: 5mph
Humidity: 77%   Direction: 230°SW
Pressure: 29.86"   Gusts: NA
Location:  40.9°N, 77.45°W
Report Text: KUNV 211553Z 23004KT 10SM SCT020 BKN026 OVC085 13/09 A2986
Loading
Personal Weather Stations






























Interactive Weather Map
Tropical Storm Tracking
New forecast layout! Learn more

10-Day Weather Forecast

Advertisements
Track Severe Weather on mobile